sensor_id;sensor_type;location;lat;lon;timestamp;pressure;altitude;pressure_sealevel;temperature;humidity
53868;BME280;41577;47.470;19.080;2023-05-24T00:00:03;99920.66;;;17.47;100.00
53868;BME280;41577;47.470;19.080;2023-05-24T00:00:16;99918.81;;;17.47;100.00
53868;BME280;41577;47.470;19.080;2023-05-24T00:00:28;99919.63;;;17.48;100.00
53868;BME280;41577;47.470;19.080;2023-05-24T00:00:40;99920.66;;;17.47;100.00
53868;BME280;41577;47.470;19.080;2023-05-24T00:00:51;99922.31;;;17.48;100.00
53868;BME280;41577;47.470;19.080;2023-05-24T00:01:04;99919.63;;;17.48;100.00
53868;BME280;41577;47.470;19.080;2023-05-24T00:01:15;99916.09;;;17.47;100.00
53868;BME280;41577;47.470;19.080;2023-05-24T00:01:27;99912.81;;;17.45;100.00
53868;BME280;41577;47.470;19.080;2023-05-24T00:01:39;99920.66;;;17.47;100.00
53868;BME280;41577;47.470;19.080;2023-05-24T00:01:50;99914.44;;;17.46;100.00
53868;BME280;41577;47.470;19.080;2023-05-24T00:02:02;99918.81;;;17.47;100.00
53868;BME280;41577;47.470;19.080;2023-05-24T00:02:14;99914.44;;;17.46;100.00
53868;BME280;41577;47.470;19.080;2023-05-24T00:02:26;99919.03;;;17.46;100.00
53868;BME280;41577;47.470;19.080;2023-05-24T00:02:38;99916.09;;;17.47;100.00
53868;BME280;41577;47.470;19.080;2023-05-24T00:02:50;99916.34;;;17.46;100.00
53868;BME280;41577;47.470;19.080;2023-05-24T00:03:02;99912.56;;;17.47;100.00
53868;BME280;41577;47.470;19.080;2023-05-24T00:03:14;99913.63;;;17.46;100.00
53868;BME280;41577;47.470;19.080;2023-05-24T00:03:26;99908.25;;;17.46;100.00
53868;BME280;41577;47.470;19.080;2023-05-24T00:03:37;99910.94;;;17.46;100.00
53868;BME280;41577;47.470;19.080;2023-05-24T00:03:50;99910.94;;;17.46;100.00
53868;BME280;41577;47.470;19.080;2023-05-24T00:04:03;99912.81;;;17.45;100.00
53868;BME280;41577;47.470;19.080;2023-05-24T00:04:15;99911.19;;;17.44;100.00
53868;BME280;41577;47.470;19.080;2023-05-24T00:04:27;99909.31;;;17.45;100.00
53868;BME280;41577;47.470;19.080;2023-05-24T00:04:39;99909.31;;;17.45;100.00
53868;BME280;41577;47.470;19.080;2023-05-24T00:04:51;99915.53;;;17.45;100.00
53868;BME280;41577;47.470;19.080;2023-05-24T00:05:03;99910.94;;;17.46;100.00
53868;BME280;41577;47.470;19.080;2023-05-24T00:05:15;99916.34;;;17.46;100.00
53868;BME280;41577;47.470;19.080;2023-05-24T00:05:27;99916.34;;;17.46;100.00
53868;BME280;41577;47.470;19.080;2023-05-24T00:05:38;99910.13;;;17.45;100.00
53868;BME280;41577;47.470;19.080;2023-05-24T00:05:50;99910.13;;;17.45;100.00
53868;BME280;41577;47.470;19.080;2023-05-24T00:06:02;99904.72;;;17.45;100.00
53868;BME280;41577;47.470;19.080;2023-05-24T00:06:14;99904.16;;;17.43;100.00
53868;BME280;41577;47.470;19.080;2023-05-24T00:06:26;99908.47;;;17.44;100.00
53868;BME280;41577;47.470;19.080;2023-05-24T00:06:38;99910.38;;;17.44;100.00
53868;BME280;41577;47.470;19.080;2023-05-24T00:06:50;99903.34;;;17.43;100.00
53868;BME280;41577;47.470;19.080;2023-05-24T00:07:02;99903.34;;;17.43;100.00
53868;BME280;41577;47.470;19.080;2023-05-24T00:07:13;99904.16;;;17.43;100.00
53868;BME280;41577;47.470;19.080;2023-05-24T00:07:25;99903.34;;;17.43;100.00
53868;BME280;41577;47.470;19.080;2023-05-24T00:07:37;99909.56;;;17.43;100.00
53868;BME280;41577;47.470;19.080;2023-05-24T00:07:49;99906.03;;;17.43;100.00
53868;BME280;41577;47.470;19.080;2023-05-24T00:08:00;99904.16;;;17.43;100.00
53868;BME280;41577;47.470;19.080;2023-05-24T00:08:12;99906.84;;;17.43;100.00
53868;BME280;41577;47.470;19.080;2023-05-24T00:08:24;99903.34;;;17.43;100.00
53868;BME280;41577;47.470;19.080;2023-05-24T00:08:35;99903.34;;;17.43;100.00
53868;BME280;41577;47.470;19.080;2023-05-24T00:08:47;99901.69;;;17.42;100.00
53868;BME280;41577;47.470;19.080;2023-05-24T00:08:59;99899.81;;;17.42;100.00
53868;BME280;41577;47.470;19.080;2023-05-24T00:09:11;99898.75;;;17.43;100.00
53868;BME280;41577;47.470;19.080;2023-05-24T00:09:22;99900.63;;;17.43;100.00
53868;BME280;41577;47.470;19.080;2023-05-24T00:09:34;99895.25;;;17.43;100.00
53868;BME280;41577;47.470;19.080;2023-05-24T00:09:46;99897.38;;;17.41;100.00
53868;BME280;41577;47.470;19.080;2023-05-24T00:09:57;99895.47;;;17.41;100.00
53868;BME280;41577;47.470;19.080;2023-05-24T00:10:10;99898.19;;;17.41;100.00
53868;BME280;41577;47.470;19.080;2023-05-24T00:10:22;99896.28;;;17.42;100.00
53868;BME280;41577;47.470;19.080;2023-05-24T00:10:34;99894.66;;;17.41;100.00
53868;BME280;41577;47.470;19.080;2023-05-24T00:10:46;99892.78;;;17.41;100.00
53868;BME280;41577;47.470;19.080;2023-05-24T00:10:57;99903.56;;;17.41;100.00
53868;BME280;41577;47.470;19.080;2023-05-24T00:11:09;99902.75;;;17.41;100.00
53868;BME280;41577;47.470;19.080;2023-05-24T00:11:21;99895.72;;;17.40;100.00
53868;BME280;41577;47.470;19.080;2023-05-24T00:11:33;99894.91;;;17.39;100.00
53868;BME280;41577;47.470;19.080;2023-05-24T00:11:44;99898.41;;;17.40;100.00
53868;BME280;41577;47.470;19.080;2023-05-24T00:11:56;99893.00;;;17.40;100.00
53868;BME280;41577;47.470;19.080;2023-05-24T00:12:08;99898.19;;;17.41;100.00
53868;BME280;41577;47.470;19.080;2023-05-24T00:12:20;99891.38;;;17.39;100.00
53868;BME280;41577;47.470;19.080;2023-05-24T00:12:32;99897.59;;;17.39;100.00
53868;BME280;41577;47.470;19.080;2023-05-24T00:12:44;99895.13;;;17.38;100.00
53868;BME280;41577;47.470;19.080;2023-05-24T00:12:56;99895.72;;;17.40;100.00
53868;BME280;41577;47.470;19.080;2023-05-24T00:13:07;99894.09;;;17.39;100.00
53868;BME280;41577;47.470;19.080;2023-05-24T00:13:19;99894.91;;;17.39;100.00
53868;BME280;41577;47.470;19.080;2023-05-24T00:13:31;99894.09;;;17.39;100.00
53868;BME280;41577;47.470;19.080;2023-05-24T00:13:43;99894.91;;;17.39;100.00
53868;BME280;41577;47.470;19.080;2023-05-24T00:13:55;99889.72;;;17.38;100.00
53868;BME280;41577;47.470;19.080;2023-05-24T00:14:07;99889.72;;;17.38;100.00
53868;BME280;41577;47.470;19.080;2023-05-24T00:14:18;99892.44;;;17.38;100.00
53868;BME280;41577;47.470;19.080;2023-05-24T00:14:30;99893.28;;;17.38;100.00
53868;BME280;41577;47.470;19.080;2023-05-24T00:14:42;99894.31;;;17.37;100.00
53868;BME280;41577;47.470;19.080;2023-05-24T00:14:54;99897.00;;;17.37;100.00
53868;BME280;41577;47.470;19.080;2023-05-24T00:15:06;99891.63;;;17.37;100.00
53868;BME280;41577;47.470;19.080;2023-05-24T00:15:18;99893.50;;;17.37;100.00
53868;BME280;41577;47.470;19.080;2023-05-24T00:15:30;99894.31;;;17.37;100.00
53868;BME280;41577;47.470;19.080;2023-05-24T00:15:42;99891.03;;;17.35;100.00
53868;BME280;41577;47.470;19.080;2023-05-24T00:15:54;99894.56;;;17.35;100.00
53868;BME280;41577;47.470;19.080;2023-05-24T00:16:05;99891.03;;;17.35;100.00
53868;BME280;41577;47.470;19.080;2023-05-24T00:16:17;99899.13;;;17.35;100.00
53868;BME280;41577;47.470;19.080;2023-05-24T00:16:29;99893.75;;;17.35;100.00
53868;BME280;41577;47.470;19.080;2023-05-24T00:16:41;99891.03;;;17.35;100.00
53868;BME280;41577;47.470;19.080;2023-05-24T00:16:53;99890.00;;;17.36;100.00
53868;BME280;41577;47.470;19.080;2023-05-24T00:17:05;99891.84;;;17.35;100.00
53868;BME280;41577;47.470;19.080;2023-05-24T00:17:17;99895.41;;;17.36;100.00
53868;BME280;41577;47.470;19.080;2023-05-24T00:17:28;99892.69;;;17.36;100.00
53868;BME280;41577;47.470;19.080;2023-05-24T00:17:40;99883.75;;;17.35;100.00
53868;BME280;41577;47.470;19.080;2023-05-24T00:17:52;99891.84;;;17.35;100.00
53868;BME280;41577;47.470;19.080;2023-05-24T00:18:04;99890.81;;;17.37;100.00
53868;BME280;41577;47.470;19.080;2023-05-24T00:18:16;99895.41;;;17.36;100.00
53868;BME280;41577;47.470;19.080;2023-05-24T00:18:28;99892.69;;;17.36;100.00
53868;BME280;41577;47.470;19.080;2023-05-24T00:18:40;99887.28;;;17.36;100.00
53868;BME280;41577;47.470;19.080;2023-05-24T00:18:51;99896.19;;;17.37;100.00
53868;BME280;41577;47.470;19.080;2023-05-24T00:19:04;99892.69;;;17.36;100.00
53868;BME280;41577;47.470;19.080;2023-05-24T00:19:16;99891.84;;;17.35;100.00
53868;BME280;41577;47.470;19.080;2023-05-24T00:19:28;99893.50;;;17.37;100.00
53868;BME280;41577;47.470;19.080;2023-05-24T00:19:40;99891.84;;;17.35;100.00
53868;BME280;41577;47.470;19.080;2023-05-24T00:19:51;99888.34;;;17.35;100.00
53868;BME280;41577;47.470;19.080;2023-05-24T00:20:04;99887.53;;;17.34;100.00
53868;BME280;41577;47.470;19.080;2023-05-24T00:20:18;99887.53;;;17.34;100.00
53868;BME280;41577;47.470;19.080;2023-05-24T00:20:30;99895.63;;;17.34;100.00
53868;BME280;41577;47.470;19.080;2023-05-24T00:20:41;99890.47;;;17.33;100.00
53868;BME280;41577;47.470;19.080;2023-05-24T00:20:53;99895.03;;;17.32;100.00
53868;BME280;41577;47.470;19.080;2023-05-24T00:21:05;99889.88;;;17.31;100.00
53868;BME280;41577;47.470;19.080;2023-05-24T00:21:17;99893.66;;;17.30;100.00
53868;BME280;41577;47.470;19.080;2023-05-24T00:21:29;99895.53;;;17.29;100.00
53868;BME280;41577;47.470;19.080;2023-05-24T00:21:40;99899.88;;;17.30;100.00
53868;BME280;41577;47.470;19.080;2023-05-24T00:21:52;99893.66;;;17.30;100.00
53868;BME280;41577;47.470;19.080;2023-05-24T00:22:04;99892.03;;;17.29;100.00
53868;BME280;41577;47.470;19.080;2023-05-24T00:22:16;99888.50;;;17.28;100.00
53868;BME280;41577;47.470;19.080;2023-05-24T00:22:27;99892.25;;;17.27;100.00
53868;BME280;41577;47.470;19.080;2023-05-24T00:22:40;99888.75;;;17.27;100.00
53868;BME280;41577;47.470;19.080;2023-05-24T00:22:51;99890.59;;;17.26;100.00
53868;BME280;41577;47.470;19.080;2023-05-24T00:23:03;99887.38;;;17.24;100.00
53868;BME280;41577;47.470;19.080;2023-05-24T00:23:15;99898.47;;;17.28;100.00
53868;BME280;41577;47.470;19.080;2023-05-24T00:23:27;99894.97;;;17.27;100.00
53868;BME280;41577;47.470;19.080;2023-05-24T00:23:39;99892.50;;;17.26;100.00
53868;BME280;41577;47.470;19.080;2023-05-24T00:23:51;99891.19;;;17.28;100.00
53868;BME280;41577;47.470;19.080;2023-05-24T00:24:02;99890.38;;;17.28;100.00
53868;BME280;41577;47.470;19.080;2023-05-24T00:24:14;99891.44;;;17.27;100.00
53868;BME280;41577;47.470;19.080;2023-05-24T00:24:26;99894.97;;;17.27;100.00
53868;BME280;41577;47.470;19.080;2023-05-24T00:24:38;99894.97;;;17.27;100.00
53868;BME280;41577;47.470;19.080;2023-05-24T00:24:49;99891.44;;;17.27;100.00
53868;BME280;41577;47.470;19.080;2023-05-24T00:25:01;99894.97;;;17.27;100.00
53868;BME280;41577;47.470;19.080;2023-05-24T00:25:13;99884.97;;;17.28;100.00
53868;BME280;41577;47.470;19.080;2023-05-24T00:25:24;99897.66;;;17.27;100.00
53868;BME280;41577;47.470;19.080;2023-05-24T00:25:36;99894.97;;;17.27;100.00
53868;BME280;41577;47.470;19.080;2023-05-24T00:25:48;99895.53;;;17.29;100.00
53868;BME280;41577;47.470;19.080;2023-05-24T00:26:00;99890.38;;;17.28;100.00
53868;BME280;41577;47.470;19.080;2023-05-24T00:26:12;99884.16;;;17.27;100.00
53868;BME280;41577;47.470;19.080;2023-05-24T00:26:28;99892.84;;;17.29;100.00
53868;BME280;41577;47.470;19.080;2023-05-24T00:26:40;99892.84;;;17.29;100.00
53868;BME280;41577;47.470;19.080;2023-05-24T00:26:52;99893.66;;;17.30;100.00
53868;BME280;41577;47.470;19.080;2023-05-24T00:27:04;99894.47;;;17.30;100.00
53868;BME280;41577;47.470;19.080;2023-05-24T00:27:16;99897.75;;;17.32;100.00
53868;BME280;41577;47.470;19.080;2023-05-24T00:27:28;99891.78;;;17.30;100.00
53868;BME280;41577;47.470;19.080;2023-05-24T00:27:40;99899.06;;;17.30;100.00
53868;BME280;41577;47.470;19.080;2023-05-24T00:27:51;99894.47;;;17.30;100.00
53868;BME280;41577;47.470;19.080;2023-05-24T00:28:03;99892.03;;;17.29;100.00
53868;BME280;41577;47.470;19.080;2023-05-24T00:28:15;99895.28;;;17.31;100.00
53868;BME280;41577;47.470;19.080;2023-05-24T00:28:29;99899.63;;;17.32;100.00
53868;BME280;41577;47.470;19.080;2023-05-24T00:28:40;99899.06;;;17.30;100.00
53868;BME280;41577;47.470;19.080;2023-05-24T00:28:52;99891.44;;;17.27;100.00
53868;BME280;41577;47.470;19.080;2023-05-24T00:29:04;99899.88;;;17.30;100.00
53868;BME280;41577;47.470;19.080;2023-05-24T00:29:16;99896.59;;;17.28;100.00
53868;BME280;41577;47.470;19.080;2023-05-24T00:29:28;99901.75;;;17.30;100.00
53868;BME280;41577;47.470;19.080;2023-05-24T00:29:43;99895.53;;;17.29;100.00
53868;BME280;41577;47.470;19.080;2023-05-24T00:29:55;99896.59;;;17.28;100.00
53868;BME280;41577;47.470;19.080;2023-05-24T00:30:07;99897.44;;;17.29;100.00
53868;BME280;41577;47.470;19.080;2023-05-24T00:30:19;99894.97;;;17.27;100.00
53868;BME280;41577;47.470;19.080;2023-05-24T00:30:31;99898.25;;;17.29;100.00
53868;BME280;41577;47.470;19.080;2023-05-24T00:30:43;99898.25;;;17.29;100.00
53868;BME280;41577;47.470;19.080;2023-05-24T00:30:55;99905.25;;;17.30;100.00
53868;BME280;41577;47.470;19.080;2023-05-24T00:31:07;99902.81;;;17.29;100.00
53868;BME280;41577;47.470;19.080;2023-05-24T00:31:19;99900.13;;;17.29;100.00
53868;BME280;41577;47.470;19.080;2023-05-24T00:31:31;99894.97;;;17.27;100.00
53868;BME280;41577;47.470;19.080;2023-05-24T00:31:43;99892.25;;;17.27;100.00
53868;BME280;41577;47.470;19.080;2023-05-24T00:31:55;99893.06;;;17.28;100.00
53868;BME280;41577;47.470;19.080;2023-05-24T00:32:07;99891.44;;;17.27;100.00
53868;BME280;41577;47.470;19.080;2023-05-24T00:32:21;99890.38;;;17.28;100.00
53868;BME280;41577;47.470;19.080;2023-05-24T00:32:32;99892.25;;;17.27;100.00
53868;BME280;41577;47.470;19.080;2023-05-24T00:32:44;99888.75;;;17.27;100.00
53868;BME280;41577;47.470;19.080;2023-05-24T00:32:56;99891.44;;;17.27;100.00
53868;BME280;41577;47.470;19.080;2023-05-24T00:33:08;99895.78;;;17.28;100.00
53868;BME280;41577;47.470;19.080;2023-05-24T00:33:20;99884.16;;;17.27;100.00
53868;BME280;41577;47.470;19.080;2023-05-24T00:33:31;99893.88;;;17.28;100.00
53868;BME280;41577;47.470;19.080;2023-05-24T00:33:43;99886.88;;;17.27;100.00
53868;BME280;41577;47.470;19.080;2023-05-24T00:33:55;99891.44;;;17.27;100.00
53868;BME280;41577;47.470;19.080;2023-05-24T00:34:08;99888.75;;;17.27;100.00
53868;BME280;41577;47.470;19.080;2023-05-24T00:34:20;99887.91;;;17.26;100.00
53868;BME280;41577;47.470;19.080;2023-05-24T00:34:32;99889.78;;;17.26;100.00
53868;BME280;41577;47.470;19.080;2023-05-24T00:34:43;99882.19;;;17.23;100.00
53868;BME280;41577;47.470;19.080;2023-05-24T00:34:55;99884.66;;;17.24;100.00
53868;BME280;41577;47.470;19.080;2023-05-24T00:35:07;99891.91;;;17.24;100.00
53868;BME280;41577;47.470;19.080;2023-05-24T00:35:19;99892.75;;;17.24;100.00
53868;BME280;41577;47.470;19.080;2023-05-24T00:35:31;99886.53;;;17.24;100.00
53868;BME280;41577;47.470;19.080;2023-05-24T00:35:42;99887.59;;;17.23;100.00
53868;BME280;41577;47.470;19.080;2023-05-24T00:35:54;99892.19;;;17.22;100.00
53868;BME280;41577;47.470;19.080;2023-05-24T00:36:06;99887.00;;;17.21;100.00
53868;BME280;41577;47.470;19.080;2023-05-24T00:36:18;99889.72;;;17.21;100.00
53868;BME280;41577;47.470;19.080;2023-05-24T00:36:31;99891.59;;;17.20;100.00
53868;BME280;41577;47.470;19.080;2023-05-24T00:36:43;99889.13;;;17.19;100.00
53868;BME280;41577;47.470;19.080;2023-05-24T00:36:55;99886.19;;;17.20;100.00
53868;BME280;41577;47.470;19.080;2023-05-24T00:37:06;99887.25;;;17.19;100.00
53868;BME280;41577;47.470;19.080;2023-05-24T00:37:18;99884.53;;;17.19;100.00
53868;BME280;41577;47.470;19.080;2023-05-24T00:37:30;99882.69;;;17.20;100.00
53868;BME280;41577;47.470;19.080;2023-05-24T00:37:42;99883.75;;;17.19;100.00
53868;BME280;41577;47.470;19.080;2023-05-24T00:37:53;99881.84;;;17.19;100.00
53868;BME280;41577;47.470;19.080;2023-05-24T00:38:05;99889.13;;;17.19;100.00
53868;BME280;41577;47.470;19.080;2023-05-24T00:38:17;99889.13;;;17.19;100.00
53868;BME280;41577;47.470;19.080;2023-05-24T00:38:29;99881.28;;;17.17;100.00
53868;BME280;41577;47.470;19.080;2023-05-24T00:38:40;99887.50;;;17.18;100.00
53868;BME280;41577;47.470;19.080;2023-05-24T00:38:52;99889.38;;;17.17;100.00
53868;BME280;41577;47.470;19.080;2023-05-24T00:39:04;99882.34;;;17.16;100.00
53868;BME280;41577;47.470;19.080;2023-05-24T00:39:16;99883.16;;;17.17;100.00
53868;BME280;41577;47.470;19.080;2023-05-24T00:39:27;99889.38;;;17.17;100.00
53868;BME280;41577;47.470;19.080;2023-05-24T00:39:39;99889.38;;;17.17;100.00
53868;BME280;41577;47.470;19.080;2023-05-24T00:39:51;99885.84;;;17.17;100.00
53868;BME280;41577;47.470;19.080;2023-05-24T00:40:03;99882.34;;;17.16;100.00
53868;BME280;41577;47.470;19.080;2023-05-24T00:40:15;99886.94;;;17.16;100.00
53868;BME280;41577;47.470;19.080;2023-05-24T00:40:27;99879.66;;;17.16;100.00
53868;BME280;41577;47.470;19.080;2023-05-24T00:40:39;99890.44;;;17.16;100.00
53868;BME280;41577;47.470;19.080;2023-05-24T00:40:51;99887.75;;;17.16;100.00
53868;BME280;41577;47.470;19.080;2023-05-24T00:41:02;99885.03;;;17.16;100.00
53868;BME280;41577;47.470;19.080;2023-05-24T00:41:14;99888.78;;;17.15;100.00
53868;BME280;41577;47.470;19.080;2023-05-24T00:41:26;99888.78;;;17.15;100.00
53868;BME280;41577;47.470;19.080;2023-05-24T00:41:38;99889.88;;;17.14;100.00
53868;BME280;41577;47.470;19.080;2023-05-24T00:41:50;99885.03;;;17.16;100.00
53868;BME280;41577;47.470;19.080;2023-05-24T00:42:01;99885.28;;;17.14;100.00
53868;BME280;41577;47.470;19.080;2023-05-24T00:42:13;99887.97;;;17.14;100.00
53868;BME280;41577;47.470;19.080;2023-05-24T00:42:25;99882.56;;;17.14;100.00
53868;BME280;41577;47.470;19.080;2023-05-24T00:42:37;99881.53;;;17.16;100.00
53868;BME280;41577;47.470;19.080;2023-05-24T00:42:49;99885.53;;;17.13;100.00
53868;BME280;41577;47.470;19.080;2023-05-24T00:43:00;99879.88;;;17.14;100.00
53868;BME280;41577;47.470;19.080;2023-05-24T00:43:12;99879.06;;;17.14;100.00
53868;BME280;41577;47.470;19.080;2023-05-24T00:43:24;99881.53;;;17.16;100.00
53868;BME280;41577;47.470;19.080;2023-05-24T00:43:36;99883.38;;;17.15;100.00
53868;BME280;41577;47.470;19.080;2023-05-24T00:43:48;99886.09;;;17.15;100.00
53868;BME280;41577;47.470;19.080;2023-05-24T00:43:59;99883.66;;;17.13;100.00
53868;BME280;41577;47.470;19.080;2023-05-24T00:44:12;99882.56;;;17.14;100.00
53868;BME280;41577;47.470;19.080;2023-05-24T00:44:25;99889.88;;;17.14;100.00
53868;BME280;41577;47.470;19.080;2023-05-24T00:44:37;99882.84;;;17.13;100.00
53868;BME280;41577;47.470;19.080;2023-05-24T00:44:48;99883.88;;;17.12;100.00
53868;BME280;41577;47.470;19.080;2023-05-24T00:45:00;99880.13;;;17.13;100.00
53868;BME280;41577;47.470;19.080;2023-05-24T00:45:12;99882.84;;;17.13;100.00
53868;BME280;41577;47.470;19.080;2023-05-24T00:45:24;99884.69;;;17.12;100.00
53868;BME280;41577;47.470;19.080;2023-05-24T00:45:36;99876.88;;;17.11;100.00
53868;BME280;41577;47.470;19.080;2023-05-24T00:46:20;99884.97;;;17.11;100.00
53868;BME280;41577;47.470;19.080;2023-05-24T00:46:33;99878.72;;;17.10;100.00
53868;BME280;41577;47.470;19.080;2023-05-24T00:46:46;99886.00;;;17.10;100.00
53868;BME280;41577;47.470;19.080;2023-05-24T00:46:59;99884.13;;;17.10;100.00
53868;BME280;41577;47.470;19.080;2023-05-24T00:47:11;99886.00;;;17.10;100.00
53868;BME280;41577;47.470;19.080;2023-05-24T00:47:23;99889.50;;;17.10;100.00
53868;BME280;41577;47.470;19.080;2023-05-24T00:47:35;99886.81;;;17.10;100.00
53868;BME280;41577;47.470;19.080;2023-05-24T00:47:47;99884.38;;;17.09;100.00
53868;BME280;41577;47.470;19.080;2023-05-24T00:47:59;99888.69;;;17.10;100.00
53868;BME280;41577;47.470;19.080;2023-05-24T00:48:12;99888.69;;;17.10;100.00
53868;BME280;41577;47.470;19.080;2023-05-24T00:48:24;99883.56;;;17.08;100.00
53868;BME280;41577;47.470;19.080;2023-05-24T00:48:36;99883.56;;;17.08;100.00
53868;BME280;41577;47.470;19.080;2023-05-24T00:48:48;99884.38;;;17.09;100.00
53868;BME280;41577;47.470;19.080;2023-05-24T00:49:01;99889.78;;;17.09;100.00
53868;BME280;41577;47.470;19.080;2023-05-24T00:49:14;99883.56;;;17.08;100.00
53868;BME280;41577;47.470;19.080;2023-05-24T00:49:26;99882.50;;;17.09;100.00
53868;BME280;41577;47.470;19.080;2023-05-24T00:49:38;99886.25;;;17.08;100.00
53868;BME280;41577;47.470;19.080;2023-05-24T00:49:50;99890.59;;;17.09;100.00
53868;BME280;41577;47.470;19.080;2023-05-24T00:50:02;99888.97;;;17.08;100.00
53868;BME280;41577;47.470;19.080;2023-05-24T00:50:14;99890.81;;;17.08;100.00
53868;BME280;41577;47.470;19.080;2023-05-24T00:50:27;99888.13;;;17.08;100.00
53868;BME280;41577;47.470;19.080;2023-05-24T00:50:39;99884.38;;;17.09;100.00
53868;BME280;41577;47.470;19.080;2023-05-24T00:50:51;99883.78;;;17.07;100.00
53868;BME280;41577;47.470;19.080;2023-05-24T00:51:03;99885.41;;;17.08;100.00
53868;BME280;41577;47.470;19.080;2023-05-24T00:51:15;99878.63;;;17.05;100.00
53868;BME280;41577;47.470;19.080;2023-05-24T00:51:27;99883.56;;;17.08;100.00
53868;BME280;41577;47.470;19.080;2023-05-24T00:51:39;99881.69;;;17.09;100.00
53868;BME280;41577;47.470;19.080;2023-05-24T00:51:51;99883.31;;;17.10;100.00
53868;BME280;41577;47.470;19.080;2023-05-24T00:52:04;99886.00;;;17.10;100.00
53868;BME280;41577;47.470;19.080;2023-05-24T00:52:17;99884.38;;;17.09;100.00
53868;BME280;41577;47.470;19.080;2023-05-24T00:52:29;99883.56;;;17.08;100.00
53868;BME280;41577;47.470;19.080;2023-05-24T00:52:41;99888.69;;;17.10;100.00
53868;BME280;41577;47.470;19.080;2023-05-24T00:52:57;99887.06;;;17.09;100.00
53868;BME280;41577;47.470;19.080;2023-05-24T00:53:11;99891.41;;;17.10;100.00
53868;BME280;41577;47.470;19.080;2023-05-24T00:53:23;99886.00;;;17.10;100.00
53868;BME280;41577;47.470;19.080;2023-05-24T00:53:36;99884.13;;;17.10;100.00
53868;BME280;41577;47.470;19.080;2023-05-24T00:53:48;99878.72;;;17.10;100.00
53868;BME280;41577;47.470;19.080;2023-05-24T00:54:01;99880.38;;;17.11;100.00
53868;BME280;41577;47.470;19.080;2023-05-24T00:54:13;99878.97;;;17.09;100.00
53868;BME280;41577;47.470;19.080;2023-05-24T00:54:25;99881.19;;;17.12;100.00
53868;BME280;41577;47.470;19.080;2023-05-24T00:54:36;99876.88;;;17.11;100.00
53868;BME280;41577;47.470;19.080;2023-05-24T00:54:48;99883.88;;;17.12;100.00
53868;BME280;41577;47.470;19.080;2023-05-24T00:55:00;99884.47;;;17.14;100.00
53868;BME280;41577;47.470;19.080;2023-05-24T00:55:12;99883.88;;;17.12;100.00
53868;BME280;41577;47.470;19.080;2023-05-24T00:55:24;99880.13;;;17.13;100.00
53868;BME280;41577;47.470;19.080;2023-05-24T00:55:36;99880.13;;;17.13;100.00
53868;BME280;41577;47.470;19.080;2023-05-24T00:55:48;99882.84;;;17.13;100.00
53868;BME280;41577;47.470;19.080;2023-05-24T00:56:00;99881.75;;;17.14;100.00
53868;BME280;41577;47.470;19.080;2023-05-24T00:56:14;99881.19;;;17.12;100.00
53868;BME280;41577;47.470;19.080;2023-05-24T00:56:26;99885.53;;;17.13;100.00
53868;BME280;41577;47.470;19.080;2023-05-24T00:56:38;99881.75;;;17.14;100.00
53868;BME280;41577;47.470;19.080;2023-05-24T00:56:50;99883.66;;;17.13;100.00
53868;BME280;41577;47.470;19.080;2023-05-24T00:57:02;99881.75;;;17.14;100.00
53868;BME280;41577;47.470;19.080;2023-05-24T00:57:14;99887.97;;;17.14;100.00
53868;BME280;41577;47.470;19.080;2023-05-24T00:57:25;99887.16;;;17.14;100.00
53868;BME280;41577;47.470;19.080;2023-05-24T00:57:38;99880.69;;;17.15;100.00
53868;BME280;41577;47.470;19.080;2023-05-24T00:57:50;99888.78;;;17.15;100.00
53868;BME280;41577;47.470;19.080;2023-05-24T00:58:03;99888.78;;;17.15;100.00
53868;BME280;41577;47.470;19.080;2023-05-24T00:58:15;99886.94;;;17.16;100.00
53868;BME280;41577;47.470;19.080;2023-05-24T00:58:27;99885.03;;;17.16;100.00
53868;BME280;41577;47.470;19.080;2023-05-24T00:58:39;99885.03;;;17.16;100.00
53868;BME280;41577;47.470;19.080;2023-05-24T00:58:51;99885.03;;;17.16;100.00
53868;BME280;41577;47.470;19.080;2023-05-24T00:59:03;99885.84;;;17.17;100.00
53868;BME280;41577;47.470;19.080;2023-05-24T00:59:15;99881.28;;;17.17;100.00
53868;BME280;41577;47.470;19.080;2023-05-24T00:59:27;99883.97;;;17.17;100.00
53868;BME280;41577;47.470;19.080;2023-05-24T00:59:39;99877.75;;;17.17;100.00
53868;BME280;41577;47.470;19.080;2023-05-24T00:59:51;99879.41;;;17.18;100.00
53868;BME280;41577;47.470;19.080;2023-05-24T01:00:05;99872.38;;;17.17;100.00
53868;BME280;41577;47.470;19.080;2023-05-24T01:00:17;99880.47;;;17.17;100.00
53868;BME280;41577;47.470;19.080;2023-05-24T01:00:30;99883.97;;;17.17;100.00
53868;BME280;41577;47.470;19.080;2023-05-24T01:00:43;99885.84;;;17.17;100.00
53868;BME280;41577;47.470;19.080;2023-05-24T01:00:58;99881.28;;;17.17;100.00
53868;BME280;41577;47.470;19.080;2023-05-24T01:01:10;99884.81;;;17.18;100.00
53868;BME280;41577;47.470;19.080;2023-05-24T01:01:22;99877.53;;;17.18;100.00
53868;BME280;41577;47.470;19.080;2023-05-24T01:01:35;99882.13;;;17.18;100.00
53868;BME280;41577;47.470;19.080;2023-05-24T01:01:47;99882.94;;;17.18;100.00
53868;BME280;41577;47.470;19.080;2023-05-24T01:01:59;99881.28;;;17.17;100.00
53868;BME280;41577;47.470;19.080;2023-05-24T01:02:11;99882.94;;;17.18;100.00
53868;BME280;41577;47.470;19.080;2023-05-24T01:02:24;99881.03;;;17.19;100.00
53868;BME280;41577;47.470;19.080;2023-05-24T01:02:36;99889.94;;;17.19;100.00